Classement Temps Dossard Nom Club Catégorie Class/Categ
1051 01:00:29 1043 CHAPUIS THIERRY ATOUSPORTS V2H 157
1052 01:00:29 1593 COPPERE PATRICIA V1F 109
1053 01:00:30 1538 PICHON GEORGES V1H 238
1054 01:00:30 1985 SANFILIPPO MARIE SOPHIE SEF 100
1055 01:00:32 1547 VIALLON YVAN V1H 239
1056 01:00:33 2313 VIAL SYLVIE V1F 110
1057 01:00:34 1432 SOULIER TIFFANY SEF 101
1058 01:00:34 2362 ACHOUROUNE SABRINA SEF 102
1059 01:00:35 1150 BONNAUD PASCALE V1F 111
1060 01:00:37 1791 SOTTON RICHARD V1H 240
1061 01:00:40 1264 LARIOD MANON JUF 3
1062 01:00:41 1281 LAGRESLE DIDIER RUNNING C MABLY SEH 279
1063 01:00:47 1802 LOMBO EVE ABS St Galmier SEF 103
1064 01:00:49 1875 CHARLIN GONNET LAURENCE V1F 112
1065 01:00:50 1028 ROCHE MAXIME SEH 280
1066 01:00:50 1556 GOMEZ CELINE SEF 104
1067 01:00:52 1554 COLLARD JULIEN SEH 281
1068 01:00:53 1561 ZUSSY JULIEN SEH 282
1069 01:00:54 1555 FOURNEL MORGANE SEF 105
1070 01:00:54 1557 MASSARD FABIEN SEH 283
1071 01:00:55 1559 BESSET ANTOINE ESH 14
1072 01:00:56 1560 MATHAUD FRANCOIS SEH 284
1073 01:00:56 1729 MONTHUY ANNE MARIE V2F 41
1074 01:00:56 1728 MONTHUY GERARD V2H 158
1075 01:00:56 1143 TOMUSIAR FRANCOISE V1F 113
1076 01:00:56 1016 RUSSIER ELODIE SEF 106
1077 01:00:56 1193 GAY ESTHEL SEF 107
1078 01:00:56 1618 CHAUVE PATRICIA SEF 108
1079 01:00:57 1612 PENEL NATHALIE ABS V1F 114
1080 01:00:58 1164 JACOB ODILE V2F 42
1081 01:01:01 2412 BOUTONNAT MARIE AMAR V2F 43
1082 01:01:02 2411 FERRARI MARIE PIERRE AMAR V2F 44
1083 01:01:02 1461 MARECAL THIERRY V2H 159
1084 01:01:03 2314 LELLI FREDERIC V1H 241
1085 01:01:03 2158 CHAPUIS TOURON CECILE V1F 115
1086 01:01:04 1927 RABIER LAETICIA SEF 109
1087 01:01:05 1928 MAZENOD CHRISTELLE FJEP BONSON V1F 116
1088 01:01:06 1541 THIVILLIER SANDRINE V1F 117
1089 01:01:07 2421 RAULOT BERNARD V3H 55
1090 01:01:08 2203 SCAGLIORE BERTRAND SEH 285
1091 01:01:08 1111 COSTE SOPHIE V1F 118
1092 01:01:10 1056 DE FREITAS M CHRISTINE V1F 119
1093 01:01:12 2482 DEGOUE DOROTHEE SEF 110
1094 01:01:14 1022 JULLIEN FREDERIC V1H 242
1095 01:01:16 1023 JULLIEN CORINNE V1F 120
1096 01:01:17 1321 DECELLE MATHIAS CAH 22
1097 01:01:17 1071 VILLEVIEILLE PATRICK V1H 243
1098 01:01:18 1788 GABION SANDRINE SEF 111
1099 01:01:18 2200 DEVEZE OIDIAA FURANIA RUNNERS V1H 244
1100 01:01:19 2201 BARKA GHOULEME FURANIA RUNNERS V3H 56
1101 01:01:19 1870 CAYRE VALERIE SEF 112
1102 01:01:20 1491 GAILLARD STEPHANIE SEF 113
1103 01:01:20 1458 JOANIN JUSTINE SEF 114
1104 01:01:21 1506 MOULIN SANDRINE SEF 115
1105 01:01:21 2053 LEVET AUDREY SEF 116
1106 01:01:22 1771 CROIZAT MARIE ANNE SEF 117
1107 01:01:22 1625 GALLET PACOME TENNIS CLUB BON SEH 286
1108 01:01:23 2336 CONTRINO PAULINE SEF 118
1109 01:01:23 1877 COURAGE BERNADETTE V3F 8
1110 01:01:24 2228 DUCHAND STEPHANE SEH 287
1111 01:01:26 2124 FAURE FABIENNE V1F 121
1112 01:01:27 1311 GUYOT SOPHIE SEF 119
1113 01:01:27 1599 PLANCHE NATHALIE SEF 120
1114 01:01:27 2284 RASCLE LUCIE SEF 121
1115 01:01:29 1776 BERTON CECILE V1F 122
1116 01:01:29 2323 BOURGET SANDRINE SEF 122
1117 01:01:34 1008 PARRA CHRISTOPHE SEH 288
1118 01:01:37 1161 MATHIEU CYRIL SA Montbrison SEH 289
1119 01:01:37 1162 MATHIEU VIRGINIE SEF 123
1120 01:01:37 1160 ROUSSIER PATRICK V1H 245
1121 01:01:38 1934 BAYON PASCAL V1H 246
1122 01:01:39 2474 DELORME SEVERINE SEF 124
1123 01:01:40 2230 CLAIRET SYLVAIN SEH 290
1124 01:01:40 1066 BAROUX JULIE SEF 125
1125 01:01:41 1651 DURAND MYLENE FOULEE FOREZIEN V1F 123
1126 01:01:41 2434 TARDY FAUSTINE SEF 126
1127 01:01:42 1462 SORIS DUSSAILLY YAMINA V2F 45
1128 01:01:42 1581 BADARD MARIE SEF 127
1129 01:01:42 2352 DOLA JORDI SEH 291
1130 01:01:43 1131 DE RAVEL D ESCLANDON AUDR SEF 128
1131 01:01:44 1786 PERROTIN MONIQUE V2F 46
1132 01:01:44 1754 MARTIN JULIEN SEH 292
1133 01:01:44 1755 MONDON MARTIN EMILIE SEF 129
1134 01:01:45 1225 GRANGETTE FREDRIC V1H 247
1135 01:01:46 1308 DEMARE SYLVIANE V1F 124
1136 01:01:46 1006 PONCET FRANCK V1H 248
1137 01:01:47 1165 DE SA PATRICIA V2F 47
1138 01:01:50 1061 PLOTON JULIETTE SEF 130
1139 01:01:52 2173 PEYRACHE NATHALIE SEF 131
1140 01:01:53 2272 GIBERNON GISELE ATHLE 42 V2F 48
1141 01:01:53 1647 DEJOIN FLORENCE FOULEE FOREZIEN SEF 132
1142 01:01:54 1227 GALLEY MARIE PIERRE V2F 49
1143 01:01:54 2174 MINAIRE XAVIER V1H 249
1144 01:01:55 1838 MOMEIN ANDRE V3H 57
1145 01:01:56 2273 GIBERNON AUGUSTE V3H 58
1146 01:01:57 1921 KRAIS LUDOVIC V1H 250
1147 01:01:58 1969 GUILLOT PATRICK V1H 251
1148 01:01:58 1968 GUILLOT OLGA V1F 125
1149 01:01:58 1469 FRANCOIS ANNE MARIE V2F 50
1150 01:01:59 2092 LHERMET JEROME SEH 293
1151 01:01:59 1918 SARRAZIN MATHIEU SEH 294
1152 01:02:00 1982 BASTIN CORINNE V1F 126
1153 01:02:00 2365 ROUY THERESE V2F 51
1154 01:02:00 2153 BOISSIERES BENJAMIN V2H 160
1155 01:02:06 1619 RAY VIRGINIE SEF 133
1156 01:02:07 1118 DAUREL PATRICIA V2F 52
1157 01:02:08 1624 VIAL ERIC V1H 252
1158 01:02:09 1617 CHANTEGRET KARINE SEF 134
1159 01:02:11 1484 DELORME SOPHIE V1F 127
1160 01:02:11 1178 MAROTTA FRANCOISE V2F 53
1161 01:02:12 2150 DUILLON MAUD CLIPS Roche SEF 135
1162 01:02:13 1909 BOUCHUT VIRGINIE SEF 136
1163 01:02:14 2439 BEDIOUI SLAHEDDINE V3H 59
1164 01:02:15 2345 MEYRET JEROME SEH 295
1165 01:02:15 1515 BROCHIER NOEL V2H 161
1166 01:02:16 2519 SERRANO NATHALIE V1F 128
1167 01:02:16 2520 CHOULET CEDRIC V1H 253
1168 01:02:16 1232 MATHIEU SUZANNE FURANIA RUNNERS V3F 9
1169 01:02:17 1646 CROS SANDRINE FOULEE FOREZIEN SEF 137
1170 01:02:17 1244 LEONI ALICE SEF 138
1171 01:02:18 2405 DUPLAY CHARLOTTE SEF 139
1172 01:02:18 2312 HERNANDEZ JOELLE V2F 54
1173 01:02:18 2451 DELPIVAR DAVID SEH 296
1174 01:02:19 2167 COLINET DANIEL V3H 60
1175 01:02:19 1082 CIZERON SANDRINE V1F 129
1176 01:02:20 1404 BUISSON MICHELE V2F 55
1177 01:02:20 1094 DUCREUX M THERESE V1F 130
1178 01:02:21 1120 GRANGER BLANDINE V1F 131
1179 01:02:21 1217 SZUKALOWSKI JEAN LUC V1H 254
1180 01:02:22 2039 DUMAS CLAIRE V1F 132
1181 01:02:22 1153 LOMBARDO NATHALIE V1F 133
1182 01:02:24 1186 PELLETIER MARIE LAURE V1F 134
1183 01:02:25 2030 PITIOT CECILE SEF 140
1184 01:02:26 1933 MANN GERALDINE SEF 141
1185 01:02:27 1960 LAUVERNET CLAIRE SEF 142
1186 01:02:27 1610 VINCENT NADEGE SEF 143
1187 01:02:28 2063 MASSON CAROLE SEF 144
1188 01:02:28 1516 BOYER DOMINIQUE FAC Andrezieux V2F 56
1189 01:02:29 1159 ROME JOELLE FAC Andrezieux V2F 57
1190 01:02:30 1770 HAFID NADINE FAC V1F 135
1191 01:02:32 1015 COLLIGNON MICHEL V4H 9
1192 01:02:32 1238 DUPIN SABINE VILLARS RUNNING V1F 136
1193 01:02:35 1096 MONDON CECILE SEF 145
1194 01:02:37 1086 BORJA JEANNE V1F 137
1195 01:02:38 2117 DI ROSA MARIANNE SEF 146
1196 01:02:38 1809 SAMUEL VERONIQUE V1F 138
1197 01:02:39 1373 LIABEUF MYRIAM MESSAOUD V3F 10
1198 01:02:39 1959 COURBON DENISE V3F 11
1199 01:02:40 1060 DEPEYRE VAYSSIERES EMILIE SEF 147
1200 01:02:40 2049 DEPEYRE MAXIME SEH 297
Retour à l'accueil